Observation data for Paducah on 07/18/2019      Previous  Date       Current Mesonet Observations  Soil Data  Daily Summary Page  Observations in Plain Language
KPAD 180500Z 17007KT 27/17 A2993 RMK A01 T02700165  RH  055%=      5-min Rain = 0
KPAD 180505Z 17007KT 27/17 A2993 RMK A01 T02680165  RH  056%=      5-min Rain = 0
KPAD 180510Z 17008KT 27/17 A2993 RMK A01 T02670166  RH  057%=      5-min Rain = 0
KPAD 180515Z 17007KT 27/17 A2993 RMK A01 T02670167  RH  057%=      5-min Rain = 0
KPAD 180520Z 17008KT 27/17 A2993 RMK A01 T02670167  RH  057%=      5-min Rain = 0
KPAD 180525Z 17008KT 27/17 A2993 RMK A01 T02670167  RH  057%=      5-min Rain = 0
KPAD 180530Z 17007KT 27/17 A2993 RMK A01 T02660167  RH  057%=      5-min Rain = 0
KPAD 180535Z 17008KT 27/17 A2993 RMK A01 T02650167  RH  058%=      5-min Rain = 0
KPAD 180540Z 17008KT 27/17 A2993 RMK A01 T02650167  RH  058%=      5-min Rain = 0
KPAD 180545Z 17009KT 26/17 A2993 RMK A01 T02640167  RH  058%=      5-min Rain = 0
KPAD 180550Z 17008KT 26/17 A2992 RMK A01 T02630167  RH  058%=      5-min Rain = 0
KPAD 180555Z 17008KT 26/17 A2992 RMK A01 T02620167  RH  058%=      5-min Rain = 0
KPAD 180600Z 18008KT 26/17 A2992 RMK A01 T02620167  RH  059%=      5-min Rain = 0
KPAD 180605Z 18009KT 26/17 A2992 RMK A01 T02610167  RH  059%=      5-min Rain = 0
KPAD 180610Z 18008KT 26/17 A2993 RMK A01 T02600167  RH  059%=      5-min Rain = 0
KPAD 180615Z 17009KT 26/17 A2993 RMK A01 T02600168  RH  060%=      5-min Rain = 0
KPAD 180620Z 18009KT 26/17 A2992 RMK A01 T02600168  RH  060%=      5-min Rain = 0
KPAD 180625Z 18009KT 26/17 A2993 RMK A01 T02590169  RH  060%=      5-min Rain = 0
KPAD 180630Z 18009KT 26/17 A2993 RMK A01 T02590169  RH  061%=      5-min Rain = 0
KPAD 180635Z 17008KT 26/17 A2993 RMK A01 T02590169  RH  061%=      5-min Rain = 0
KPAD 180640Z 17009KT 26/17 A2993 RMK A01 T02590170  RH  061%=      5-min Rain = 0
KPAD 180645Z 17009KT 26/17 A2993 RMK A01 T02590170  RH  061%=      5-min Rain = 0
KPAD 180650Z 17009KT 26/17 A2993 RMK A01 T02600171  RH  061%=      5-min Rain = 0
KPAD 180655Z 17009KT 26/17 A2992 RMK A01 T02600171  RH  061%=      5-min Rain = 0
KPAD 180700Z 18009KT 26/17 A2992 RMK A01 T02600172  RH  061%=      5-min Rain = 0
KPAD 180705Z 18010KT 26/17 A2992 RMK A01 T02600172  RH  061%=      5-min Rain = 0
KPAD 180710Z 18010KT 26/17 A2992 RMK A01 T02600173  RH  062%=      5-min Rain = 0
KPAD 180715Z 18009KT 26/17 A2992 RMK A01 T02600174  RH  062%=      5-min Rain = 0
KPAD 180720Z 18010KT 26/17 A2992 RMK A01 T02590174  RH  062%=      5-min Rain = 0
KPAD 180725Z 18009KT 26/17 A2992 RMK A01 T02590174  RH  063%=      5-min Rain = 0
KPAD 180730Z 18011KT 26/18 A2992 RMK A01 T02590175  RH  063%=      5-min Rain = 0
KPAD 180735Z 18011KT 26/18 A2991 RMK A01 T02600175  RH  063%=      5-min Rain = 0
KPAD 180740Z 18012KT 26/18 A2991 RMK A01 T02610176  RH  062%=      5-min Rain = 0
KPAD 180745Z 18011KT 26/18 A2992 RMK A01 T02610176  RH  063%=      5-min Rain = 0
KPAD 180750Z 18011G17KT 26/18 A2992 RMK A01 T02600177  RH  063%=      5-min Rain = 0
KPAD 180755Z 18012KT 26/18 A2991 RMK A01 T02610177  RH  063%=      5-min Rain = 0
KPAD 180800Z 18012KT 26/18 A2991 RMK A01 T02610177  RH  063%=      5-min Rain = 0
KPAD 180805Z 18013KT 26/18 A2991 RMK A01 T02620177  RH  063%=      5-min Rain = 0
KPAD 180810Z 18011KT 26/18 A2991 RMK A01 T02610178  RH  063%=      5-min Rain = 0
KPAD 180815Z 18011KT 26/18 A2991 RMK A01 T02610178  RH  064%=      5-min Rain = 0
KPAD 180820Z 18011KT 26/18 A2992 RMK A01 T02600178  RH  064%=      5-min Rain = 0
KPAD 180825Z 19012KT 26/18 A2992 RMK A01 T02590178  RH  064%=      5-min Rain = 0
KPAD 180830Z 19012KT 26/18 A2992 RMK A01 T02590179  RH  065%=      5-min Rain = 0
KPAD 180835Z 19012KT 26/18 A2992 RMK A01 T02580179  RH  065%=      5-min Rain = 0
KPAD 180840Z 18013KT 26/18 A2992 RMK A01 T02570179  RH  065%=      5-min Rain = 0
KPAD 180845Z 19012G17KT 26/18 A2992 RMK A01 T02580180  RH  065%=      5-min Rain = 0
KPAD 180850Z 19012KT 26/18 A2992 RMK A01 T02570180  RH  066%=      5-min Rain = 0
KPAD 180855Z 19011KT 26/18 A2993 RMK A01 T02570180  RH  066%=      5-min Rain = 0
KPAD 180900Z 19012KT 26/18 A2993 RMK A01 T02560181  RH  067%=      5-min Rain = 0
KPAD 180905Z 19012KT 26/18 A2993 RMK A01 T02560181  RH  067%=      5-min Rain = 0
KPAD 180910Z 19012G17KT 26/18 A2993 RMK A01 T02560181  RH  067%=      5-min Rain = 0
KPAD 180915Z 19012G17KT 26/18 A2993 RMK A01 T02550182  RH  067%=      5-min Rain = 0
KPAD 180920Z 19012KT 26/18 A2992 RMK A01 T02550182  RH  067%=      5-min Rain = 0
KPAD 180925Z 19012KT 26/18 A2992 RMK A01 T02550182  RH  068%=      5-min Rain = 0
KPAD 180930Z 19012KT 25/18 A2992 RMK A01 T02540182  RH  068%=      5-min Rain = 0
KPAD 180935Z 19012G17KT 25/18 A2992 RMK A01 T02540183  RH  068%=      5-min Rain = 0
KPAD 180940Z 19012KT 25/18 A2992 RMK A01 T02540183  RH  068%=      5-min Rain = 0
KPAD 180945Z 19014KT 25/18 A2992 RMK A01 T02540183  RH  068%=      5-min Rain = 0
KPAD 180950Z 19013KT 25/18 A2992 RMK A01 T02540183  RH  069%=      5-min Rain = 0
KPAD 180955Z 18014KT 25/18 A2992 RMK A01 T02540184  RH  069%=      5-min Rain = 0
KPAD 181000Z 18013KT 25/18 A2992 RMK A01 T02540184  RH  069%=      5-min Rain = 0
KPAD 181005Z 19012G17KT 25/18 A2992 RMK A01 T02530184  RH  069%=      5-min Rain = 0
KPAD 181010Z 19012G17KT 25/18 A2992 RMK A01 T02520184  RH  070%=      5-min Rain = 0
KPAD 181015Z 19012KT 25/19 A2993 RMK A01 T02510185  RH  070%=      5-min Rain = 0
KPAD 181020Z 19013KT 25/19 A2993 RMK A01 T02500185  RH  071%=      5-min Rain = 0
KPAD 181025Z 19012KT 25/19 A2993 RMK A01 T02500185  RH  071%=      5-min Rain = 0
KPAD 181030Z 19012KT 25/19 A2993 RMK A01 T02490185  RH  071%=      5-min Rain = 0
KPAD 181035Z 19012KT 25/19 A2993 RMK A01 T02490186  RH  072%=      5-min Rain = 0
KPAD 181040Z 20012KT 25/19 A2993 RMK A01 T02490186  RH  072%=      5-min Rain = 0
KPAD 181045Z 20012KT 25/19 A2993 RMK A01 T02490186  RH  072%=      5-min Rain = 0
KPAD 181050Z 20013KT 25/19 A2993 RMK A01 T02500187  RH  072%=      5-min Rain = 0
KPAD 181055Z 19013KT 25/19 A2993 RMK A01 T02500187  RH  072%=      5-min Rain = 0
KPAD 181100Z 20013KT 25/19 A2994 RMK A01 T02490187  RH  072%=      5-min Rain = 0
KPAD 181105Z 20012KT 25/19 A2994 RMK A01 T02490187  RH  072%=      5-min Rain = 0
KPAD 181110Z 20010KT 25/19 A2994 RMK A01 T02480187  RH  073%=      5-min Rain = 0
KPAD 181115Z 20011KT 25/19 A2994 RMK A01 T02460187  RH  074%=      5-min Rain = 0
KPAD 181120Z 20011KT 25/19 A2994 RMK A01 T02450187  RH  074%=      5-min Rain = 0
KPAD 181125Z 19010KT 24/19 A2994 RMK A01 T02440188  RH  075%=      5-min Rain = 0
KPAD 181130Z 19011KT 24/19 A2994 RMK A01 T02430188  RH  075%=      5-min Rain = 0
KPAD 181135Z 19010KT 24/19 A2994 RMK A01 T02420188  RH  076%=      5-min Rain = 0
KPAD 181140Z 20010KT 24/19 A2994 RMK A01 T02420188  RH  076%=      5-min Rain = 0
KPAD 181145Z 19010KT 24/19 A2994 RMK A01 T02410188  RH  077%=      5-min Rain = 0
KPAD 181200Z 19010KT 24/19 A2994 RMK A01 T02420190  RH  077%=      5-min Rain = 0
KPAD 181205Z 19010KT 24/19 A2994 RMK A01 T02420191  RH  077%=      5-min Rain = 0
KPAD 181210Z 19010KT 24/19 A2994 RMK A01 T02430191  RH  077%=      5-min Rain = 0
KPAD 181215Z 19011KT 24/19 A2994 RMK A01 T02440192  RH  077%=      5-min Rain = 0
KPAD 181220Z 19010KT 25/19 A2994 RMK A01 T02460193  RH  077%=      5-min Rain = 0
KPAD 181225Z 19011KT 25/19 A2994 RMK A01 T02470193  RH  076%=      5-min Rain = 0
KPAD 181230Z 19011KT 25/19 A2995 RMK A01 T02490194  RH  076%=      5-min Rain = 0
KPAD 181235Z 19010KT 25/20 A2995 RMK A01 T02500195  RH  075%=      5-min Rain = 0
KPAD 181240Z 19012KT 25/20 A2995 RMK A01 T02520195  RH  075%=      5-min Rain = 0
KPAD 181245Z 19011KT 25/20 A2995 RMK A01 T02530196  RH  075%=      5-min Rain = 0
KPAD 181250Z 19011KT 26/20 A2995 RMK A01 T02550197  RH  075%=      5-min Rain = 0
KPAD 181255Z 19011G16KT 26/20 A2995 RMK A01 T02560198  RH  074%=      5-min Rain = 0
KPAD 181300Z 19012KT 26/20 A2994 RMK A01 T02570198  RH  074%=      5-min Rain = 0
KPAD 181305Z 19013G18KT 26/20 A2994 RMK A01 T02590199  RH  073%=      5-min Rain = 0
KPAD 181310Z 19014KT 26/20 A2994 RMK A01 T02610200  RH  073%=      5-min Rain = 0
KPAD 181315Z 19014G19KT 26/20 A2994 RMK A01 T02630200  RH  072%=      5-min Rain = 0
KPAD 181320Z 19016G22KT 27/20 A2994 RMK A01 T02650200  RH  072%=      5-min Rain = 0
KPAD 181325Z 19017G23KT 27/20 A2994 RMK A01 T02660200  RH  071%=      5-min Rain = 0
KPAD 181330Z 19018G24KT 27/20 A2993 RMK A01 T02670200  RH  071%=      5-min Rain = 0
KPAD 181335Z 20018G25KT 27/20 A2994 RMK A01 T02680201  RH  071%=      5-min Rain = 0
KPAD 181340Z 19018G23KT 27/20 A2994 RMK A01 T02690201  RH  070%=      5-min Rain = 0
KPAD 181345Z 20019KT 27/20 A2994 RMK A01 T02710201  RH  070%=      5-min Rain = 0
KPAD 181350Z 19018G24KT 27/20 A2994 RMK A01 T02720202  RH  069%=      5-min Rain = 0
KPAD 181355Z 19017G25KT 27/20 A2993 RMK A01 T02740203  RH  069%=      5-min Rain = 0
KPAD 181400Z 19018G24KT 28/20 A2993 RMK A01 T02770203  RH  068%=      5-min Rain = 0
KPAD 181405Z 19018G25KT 28/20 A2993 RMK A01 T02780203  RH  067%=      5-min Rain = 0
KPAD 181410Z 20018G24KT 28/20 A2993 RMK A01 T02790204  RH  067%=      5-min Rain = 0
KPAD 181415Z 20018G25KT 28/20 A2993 RMK A01 T02810203  RH  066%=      5-min Rain = 0
KPAD 181420Z 20019G25KT 28/20 A2993 RMK A01 T02820202  RH  066%=      5-min Rain = 0
KPAD 181425Z 19019G26KT 28/20 A2993 RMK A01 T02840203  RH  065%=      5-min Rain = 0
KPAD 181430Z 20017G22KT 29/20 A2993 RMK A01 T02860204  RH  065%=      5-min Rain = 0
KPAD 181435Z 20018G24KT 29/20 A2993 RMK A01 T02890203  RH  063%=      5-min Rain = 0
KPAD 181440Z 20019G25KT 29/20 A2993 RMK A01 T02890202  RH  063%=      5-min Rain = 0
KPAD 181445Z 20017G24KT 29/20 A2993 RMK A01 T02910204  RH  063%=      5-min Rain = 0
KPAD 181450Z 20017G22KT 29/20 A2993 RMK A01 T02940203  RH  062%=      5-min Rain = 0
KPAD 181455Z 20017G24KT 30/20 A2993 RMK A01 T02960204  RH  061%=      5-min Rain = 0
KPAD 181500Z 20017G23KT 30/20 A2993 RMK A01 T02980204  RH  061%=      5-min Rain = 0
KPAD 181505Z 19019G24KT 30/20 A2993 RMK A01 T02970203  RH  060%=      5-min Rain = 0
KPAD 181510Z 19021KT 30/20 A2993 RMK A01 T02970202  RH  060%=      5-min Rain = 0
KPAD 181515Z 20019G25KT 30/20 A2993 RMK A01 T03000202  RH  059%=      5-min Rain = 0
KPAD 181520Z 20018G23KT 30/20 A2993 RMK A01 T03010202  RH  059%=      5-min Rain = 0
KPAD 181525Z 20016KT 30/20 A2993 RMK A01 T03040203  RH  058%=      5-min Rain = 0
KPAD 181530Z 19016G22KT 31/21 A2992 RMK A01 T03070205  RH  058%=      5-min Rain = 0
KPAD 181535Z 20018KT 31/20 A2992 RMK A01 T03090202  RH  056%=      5-min Rain = 0
KPAD 181540Z 21016KT 31/20 A2992 RMK A01 T03090202  RH  056%=      5-min Rain = 0
KPAD 181545Z 19018G25KT 31/20 A2992 RMK A01 T03110203  RH  056%=      5-min Rain = 0
KPAD 181550Z 20018G23KT 31/20 A2992 RMK A01 T03110202  RH  055%=      5-min Rain = 0
KPAD 181555Z 19020KT 31/20 A2992 RMK A01 T03110201  RH  055%=      5-min Rain = 0
KPAD 181600Z 19017G23KT 32/20 A2992 RMK A01 T03150203  RH  055%=      5-min Rain = 0
KPAD 181605Z 19019G24KT 32/20 A2992 RMK A01 T03180201  RH  053%=      5-min Rain = 0
KPAD 181610Z 19017G23KT 32/20 A2992 RMK A01 T03180202  RH  054%=      5-min Rain = 0
KPAD 181615Z 20017G22KT 32/20 A2992 RMK A01 T03190202  RH  053%=      5-min Rain = 0
KPAD 181620Z 19019G26KT 32/20 A2992 RMK A01 T03210202  RH  052%=      5-min Rain = 0
KPAD 181625Z 20018G23KT 32/20 A2992 RMK A01 T03220201  RH  052%=      5-min Rain = 0
KPAD 181630Z 20018G24KT 32/20 A2992 RMK A01 T03230200  RH  051%=      5-min Rain = 0
KPAD 181635Z 19016G24KT 33/20 A2992 RMK A01 T03250201  RH  051%=      5-min Rain = 0
KPAD 181640Z 19018G24KT 33/20 A2992 RMK A01 T03260200  RH  050%=      5-min Rain = 0
KPAD 181645Z 19018KT 33/20 A2991 RMK A01 T03280200  RH  050%=      5-min Rain = 0
KPAD 181650Z 20017G22KT 33/20 A2991 RMK A01 T03300199  RH  049%=      5-min Rain = 0
KPAD 181655Z 19016G23KT 33/20 A2991 RMK A01 T03300198  RH  049%=      5-min Rain = 0
KPAD 181700Z 20017G24KT 33/20 A2991 RMK A01 T03320199  RH  048%=      5-min Rain = 0
KPAD 181705Z 19019G26KT 33/20 A2991 RMK A01 T03330197  RH  047%=      5-min Rain = 0
KPAD 181710Z 19015G21KT 33/20 A2991 RMK A01 T03330199  RH  048%=      5-min Rain = 0
KPAD 181715Z 19015G22KT 34/20 A2991 RMK A01 T03390197  RH  046%=      5-min Rain = 0
KPAD 181720Z 19016G22KT 34/20 A2991 RMK A01 T03380195  RH  045%=      5-min Rain = 0
KPAD 181725Z 20015G20KT 34/20 A299 RMK A01 T03420195  RH  045%=      5-min Rain = 0
KPAD 181730Z 20014G21KT 34/20 A299 RMK A01 T03440195  RH  044%=      5-min Rain = 0
KPAD 181735Z 19014G19KT 35/20 A299 RMK A01 T03460197  RH  044%=      5-min Rain = 0
KPAD 181740Z 19016G21KT 35/19 A299 RMK A01 T03450194  RH  043%=      5-min Rain = 0
KPAD 181745Z 20014G21KT 34/20 A299 RMK A01 T03440195  RH  044%=      5-min Rain = 0
KPAD 181750Z 18015G20KT 35/20 A299 RMK A01 T03470196  RH  043%=      5-min Rain = 0
KPAD 181755Z 19015G21KT 35/19 A299 RMK A01 T03480193  RH  043%=      5-min Rain = 0
KPAD 181800Z 19013G21KT 35/20 A299 RMK A01 T03500196  RH  043%=      5-min Rain = 0
KPAD 181805Z 19014G21KT 35/20 A299 RMK A01 T03540195  RH  042%=      5-min Rain = 0
KPAD 181810Z 20015G22KT 35/19 A299 RMK A01 T03540192  RH  041%=      5-min Rain = 0
KPAD 181815Z 19014G19KT 35/19 A299 RMK A01 T03520192  RH  041%=      5-min Rain = 0
KPAD 181820Z 19012G18KT 35/19 A299 RMK A01 T03530192  RH  041%=      5-min Rain = 0
KPAD 181825Z 20014G19KT 36/19 A299 RMK A01 T03560191  RH  040%=      5-min Rain = 0
KPAD 181830Z 20013KT 35/19 A2989 RMK A01 T03540189  RH  040%=      5-min Rain = 0
KPAD 181835Z 19012G18KT 36/19 A2989 RMK A01 T03580190  RH  039%=      5-min Rain = 0
KPAD 181840Z 19012G18KT 36/19 A2989 RMK A01 T03610190  RH  039%=      5-min Rain = 0
KPAD 181845Z 18011G18KT 36/19 A2989 RMK A01 T03600189  RH  039%=      5-min Rain = 0
KPAD 181850Z 19013G18KT 36/19 A2989 RMK A01 T03630187  RH  038%=      5-min Rain = 0
KPAD 181855Z 19013G19KT 36/19 A2988 RMK A01 T03630188  RH  038%=      5-min Rain = 0
KPAD 181900Z 18015G22KT 36/18 A2988 RMK A01 T03630184  RH  037%=      5-min Rain = 0
KPAD 181905Z 19016G21KT 36/19 A2988 RMK A01 T03620185  RH  037%=      5-min Rain = 0
KPAD 181910Z 18013G20KT 37/18 A2988 RMK A01 T03650184  RH  037%=      5-min Rain = 0
KPAD 181915Z 18014G21KT 37/18 A2988 RMK A01 T03650182  RH  036%=      5-min Rain = 0
KPAD 181920Z 19014G20KT 37/18 A2987 RMK A01 T03680183  RH  036%=      5-min Rain = 0
KPAD 181925Z 19013KT 37/18 A2987 RMK A01 T03690184  RH  036%=      5-min Rain = 0
KPAD 181930Z 19013G19KT 37/18 A2987 RMK A01 T03720183  RH  035%=      5-min Rain = 0
KPAD 181935Z 20010G18KT 37/18 A2987 RMK A01 T03690178  RH  034%=      5-min Rain = 0
KPAD 181940Z 20012G19KT 38/18 A2987 RMK A01 T03750184  RH  035%=      5-min Rain = 0
KPAD 181945Z 20011G18KT 37/18 A2987 RMK A01 T03740178  RH  033%=      5-min Rain = 0
KPAD 181950Z 20013G18KT 37/18 A2987 RMK A01 T03740181  RH  034%=      5-min Rain = 0
KPAD 181955Z 18013G18KT 37/18 A2986 RMK A01 T03720179  RH  034%=      5-min Rain = 0
KPAD 182000Z 20014G19KT 38/18 A2986 RMK A01 T03750178  RH  033%=      5-min Rain = 0
KPAD 182005Z 19011G16KT 38/18 A2986 RMK A01 T03760177  RH  033%=      5-min Rain = 0
KPAD 182010Z 18014G21KT 38/18 A2986 RMK A01 T03750175  RH  033%=      5-min Rain = 0
KPAD 182015Z 19014G20KT 38/17 A2986 RMK A01 T03750170  RH  032%=      5-min Rain = 0
KPAD 182020Z 19013G20KT 38/17 A2986 RMK A01 T03750174  RH  033%=      5-min Rain = 0
KPAD 182025Z 19013G21KT 37/17 A2985 RMK A01 T03740173  RH  032%=      5-min Rain = 0
KPAD 182030Z 19015G20KT 38/17 A2985 RMK A01 T03750170  RH  032%=      5-min Rain = 0
KPAD 182035Z 19015G20KT 38/17 A2985 RMK A01 T03780169  RH  031%=      5-min Rain = 0
KPAD 182040Z 19014G20KT 38/17 A2985 RMK A01 T03790171  RH  031%=      5-min Rain = 0
KPAD 182045Z 20015G22KT 38/17 A2985 RMK A01 T03780166  RH  030%=      5-min Rain = 0
KPAD 182050Z 18013G22KT 38/17 A2985 RMK A01 T03780170  RH  031%=      5-min Rain = 0
KPAD 182055Z 17013G19KT 38/17 A2985 RMK A01 T03780167  RH  030%=      5-min Rain = 0
KPAD 182100Z 19015KT 38/17 A2985 RMK A01 T03790170  RH  031%=      5-min Rain = 0
KPAD 182105Z 18015G22KT 38/17 A2984 RMK A01 T03760167  RH  031%=      5-min Rain = 0
KPAD 182110Z 20013G22KT 38/17 A2984 RMK A01 T03780170  RH  031%=      5-min Rain = 0
KPAD 182115Z 19016G25KT 38/17 A2984 RMK A01 T03790165  RH  030%=      5-min Rain = 0
KPAD 182120Z 19018G26KT 38/17 A2984 RMK A01 T03790166  RH  030%=      5-min Rain = 0
KPAD 182125Z 18014G21KT 38/16 A2983 RMK A01 T03770164  RH  030%=      5-min Rain = 0
KPAD 182130Z 18015G23KT 38/17 A2983 RMK A01 T03810169  RH  030%=      5-min Rain = 0
KPAD 182135Z 18017G24KT 38/16 A2983 RMK A01 T03810164  RH  029%=      5-min Rain = 0
KPAD 182140Z 19015G23KT 38/17 A2982 RMK A01 T03820166  RH  030%=      5-min Rain = 0
KPAD 182145Z 19016G21KT 38/16 A2982 RMK A01 T03810164  RH  029%=      5-min Rain = 0
KPAD 182150Z 19017G24KT 38/16 A2982 RMK A01 T03800164  RH  030%=      5-min Rain = 0
KPAD 182155Z 19016G26KT 38/17 A2982 RMK A01 T03800166  RH  030%=      5-min Rain = 0
KPAD 182200Z 18017G27KT 38/17 A2982 RMK A01 T03780165  RH  030%=      5-min Rain = 0
KPAD 182205Z 18017G24KT 38/17 A2982 RMK A01 T03780165  RH  030%=      5-min Rain = 0
KPAD 182210Z 18014G22KT 38/17 A2981 RMK A01 T03810165  RH  030%=      5-min Rain = 0
KPAD 182215Z 17016G25KT 38/17 A2981 RMK A01 T03790167  RH  030%=      5-min Rain = 0
KPAD 182220Z 19015G22KT 38/17 A2981 RMK A01 T03780165  RH  030%=      5-min Rain = 0
KPAD 182225Z 18017G29KT 38/16 A2981 RMK A01 T03770163  RH  030%=      5-min Rain = 0
KPAD 182230Z 18016G23KT 37/17 A2981 RMK A01 T03740165  RH  031%=      5-min Rain = 0
KPAD 182235Z 19018G24KT 38/17 A2981 RMK A01 T03760166  RH  031%=      5-min Rain = 0
KPAD 182240Z 18013G21KT 37/17 A2981 RMK A01 T03740168  RH  031%=      5-min Rain = 0
KPAD 182245Z 18016G24KT 38/17 A298 RMK A01 T03770168  RH  031%=      5-min Rain = 0
KPAD 182250Z 17015G23KT 37/17 A298 RMK A01 T03730169  RH  032%=      5-min Rain = 0
KPAD 182255Z 19015G21KT 38/17 A298 RMK A01 T03750168  RH  031%=      5-min Rain = 0
KPAD 182300Z 18018G25KT 37/16 A298 RMK A01 T03740164  RH  031%=      5-min Rain = 0
KPAD 182305Z 18018G26KT 37/17 A298 RMK A01 T03720168  RH  032%=      5-min Rain = 0
KPAD 182310Z 17017G23KT 37/17 A298 RMK A01 T03700170  RH  032%=      5-min Rain = 0
KPAD 182315Z 18019G26KT 37/17 A298 RMK A01 T03710169  RH  032%=      5-min Rain = 0
KPAD 182320Z 18017G24KT 37/17 A298 RMK A01 T03700169  RH  032%=      5-min Rain = 0
KPAD 182325Z 18017G25KT 37/17 A298 RMK A01 T03700169  RH  032%=      5-min Rain = 0
KPAD 182330Z 19017G22KT 37/17 A298 RMK A01 T03690169  RH  032%=      5-min Rain = 0
KPAD 182335Z 17017G24KT 37/17 A298 RMK A01 T03680167  RH  032%=      5-min Rain = 0
KPAD 182340Z 17016G21KT 37/17 A298 RMK A01 T03660168  RH  033%=      5-min Rain = 0
KPAD 182345Z 18015G23KT 37/17 A298 RMK A01 T03670168  RH  033%=      5-min Rain = 0
KPAD 182350Z 17017G22KT 37/17 A298 RMK A01 T03660168  RH  033%=      5-min Rain = 0
KPAD 182355Z 17017G23KT 36/17 A298 RMK A01 T03640168  RH  033%=      5-min Rain = 0
KPAD 190000Z 18017G23KT 36/17 A298 RMK A01 T03630168  RH  033%=      5-min Rain = 0
KPAD 190005Z 17018KT 36/17 A298 RMK A01 T03620167  RH  033%=      5-min Rain = 0
KPAD 190010Z 16016G23KT 36/17 A298 RMK A01 T03610168  RH  034%=      5-min Rain = 0
KPAD 190015Z 17016G24KT 36/17 A298 RMK A01 T03600169  RH  034%=      5-min Rain = 0
KPAD 190020Z 17018G24KT 36/17 A298 RMK A01 T03590168  RH  034%=      5-min Rain = 0
KPAD 190025Z 17017G23KT 36/17 A298 RMK A01 T03590168  RH  034%=      5-min Rain = 0
KPAD 190030Z 17018G23KT 36/17 A298 RMK A01 T03580167  RH  034%=      5-min Rain = 0
KPAD 190035Z 17018KT 36/17 A298 RMK A01 T03560167  RH  034%=      5-min Rain = 0
KPAD 190040Z 17017G23KT 36/17 A298 RMK A01 T03550166  RH  034%=      5-min Rain = 0
KPAD 190045Z 17015G22KT 35/17 A298 RMK A01 T03540168  RH  035%=      5-min Rain = 0
KPAD 190050Z 17016G23KT 35/17 A298 RMK A01 T03530167  RH  035%=      5-min Rain = 0
KPAD 190055Z 17016G23KT 35/17 A298 RMK A01 T03520166  RH  035%=      5-min Rain = 0
KPAD 190100Z 16014G21KT 35/17 A298 RMK A01 T03510167  RH  035%=      5-min Rain = 0
KPAD 190105Z 17013G19KT 35/17 A298 RMK A01 T03500168  RH  036%=      5-min Rain = 0
KPAD 190110Z 17012G18KT 35/17 A2981 RMK A01 T03480168  RH  036%=      5-min Rain = 0
KPAD 190115Z 17015G20KT 35/16 A2981 RMK A01 T03470164  RH  035%=      5-min Rain = 0
KPAD 190120Z 17015G21KT 35/17 A2981 RMK A01 T03460165  RH  036%=      5-min Rain = 0
KPAD 190125Z 17015KT 35/16 A2981 RMK A01 T03450164  RH  036%=      5-min Rain = 0
KPAD 190130Z 17013KT 34/17 A2981 RMK A01 T03430165  RH  036%=      5-min Rain = 0
KPAD 190135Z 17014G21KT 34/16 A2981 RMK A01 T03410164  RH  036%=      5-min Rain = 0
KPAD 190140Z 17017KT 34/16 A2981 RMK A01 T03400161  RH  036%=      5-min Rain = 0
KPAD 190145Z 17015G20KT 34/16 A2981 RMK A01 T03390160  RH  036%=      5-min Rain = 0
KPAD 190150Z 17015G21KT 34/16 A2981 RMK A01 T03380160  RH  036%=      5-min Rain = 0
KPAD 190155Z 17014KT 34/16 A2981 RMK A01 T03370160  RH  036%=      5-min Rain = 0
KPAD 190200Z 17013G18KT 34/16 A2981 RMK A01 T03350160  RH  037%=      5-min Rain = 0
KPAD 190205Z 17013G19KT 33/16 A2981 RMK A01 T03340160  RH  037%=      5-min Rain = 0
KPAD 190210Z 17013G18KT 33/16 A2982 RMK A01 T03320160  RH  037%=      5-min Rain = 0
KPAD 190215Z 17012G18KT 33/16 A2982 RMK A01 T03310160  RH  038%=      5-min Rain = 0
KPAD 190220Z 17012KT 33/16 A2982 RMK A01 T03290160  RH  038%=      5-min Rain = 0
KPAD 190225Z 17012KT 33/16 A2982 RMK A01 T03280160  RH  038%=      5-min Rain = 0
KPAD 190230Z 17012G17KT 33/16 A2982 RMK A01 T03260160  RH  039%=      5-min Rain = 0
KPAD 190235Z 17012KT 33/16 A2982 RMK A01 T03260160  RH  039%=      5-min Rain = 0
KPAD 190240Z 17012KT 33/16 A2982 RMK A01 T03250159  RH  039%=      5-min Rain = 0
KPAD 190245Z 17012KT 32/16 A2982 RMK A01 T03240159  RH  039%=      5-min Rain = 0
KPAD 190250Z 17011G16KT 32/16 A2983 RMK A01 T03220159  RH  039%=      5-min Rain = 0
KPAD 190255Z 17011KT 32/16 A2983 RMK A01 T03200160  RH  040%=      5-min Rain = 0
KPAD 190300Z 17011G16KT 32/16 A2983 RMK A01 T03180160  RH  040%=      5-min Rain = 0
KPAD 190305Z 17012G17KT 32/16 A2983 RMK A01 T03170160  RH  041%=      5-min Rain = 0
KPAD 190310Z 17010KT 32/16 A2983 RMK A01 T03160160  RH  041%=      5-min Rain = 0
KPAD 190315Z 17010KT 31/16 A2983 RMK A01 T03140162  RH  042%=      5-min Rain = 0
KPAD 190320Z 16010KT 31/16 A2983 RMK A01 T03120164  RH  043%=      5-min Rain = 0
KPAD 190325Z 16010KT 31/17 A2984 RMK A01 T03100166  RH  044%=      5-min Rain = 0
KPAD 190330Z 17010G15KT 31/17 A2984 RMK A01 T03090168  RH  045%=      5-min Rain = 0
KPAD 190335Z 17012G17KT 31/17 A2984 RMK A01 T03080170  RH  046%=      5-min Rain = 0
KPAD 190340Z 17011KT 31/17 A2984 RMK A01 T03090170  RH  046%=      5-min Rain = 0
KPAD 190345Z 17010KT 31/17 A2984 RMK A01 T03070171  RH  047%=      5-min Rain = 0
KPAD 190350Z 17011G19KT 31/17 A2984 RMK A01 T03060172  RH  047%=      5-min Rain = 0
KPAD 190355Z 17012KT 31/17 A2985 RMK A01 T03060172  RH  047%=      5-min Rain = 0
KPAD 190400Z 17012KT 31/17 A2985 RMK A01 T03060172  RH  047%=      5-min Rain = 0
KPAD 190405Z 17012KT 31/17 A2985 RMK A01 T03060172  RH  047%=      5-min Rain = 0
KPAD 190410Z 17012KT 31/17 A2985 RMK A01 T03050172  RH  047%=      5-min Rain = 0
KPAD 190415Z 17012KT 31/17 A2985 RMK A01 T03050172  RH  047%=      5-min Rain = 0
KPAD 190420Z 17013KT 31/17 A2985 RMK A01 T03050171  RH  047%=      5-min Rain = 0
KPAD 190425Z 17012G17KT 30/17 A2986 RMK A01 T03040171  RH  047%=      5-min Rain = 0
KPAD 190430Z 17013KT 30/17 A2986 RMK A01 T03040170  RH  047%=      5-min Rain = 0
KPAD 190435Z 17012G17KT 30/17 A2986 RMK A01 T03030170  RH  047%=      5-min Rain = 0
KPAD 190440Z 17013KT 30/17 A2986 RMK A01 T03030170  RH  047%=      5-min Rain = 0
KPAD 190445Z 17013KT 30/17 A2986 RMK A01 T03020169  RH  047%=      5-min Rain = 0
KPAD 190450Z 17013KT 30/17 A2986 RMK A01 T03010169  RH  047%=      5-min Rain = 0
KPAD 190455Z 17012KT 30/17 A2986 RMK A01 T03000169  RH  048%=      5-min Rain = 0

Page generated in 0.0091 seconds.